createdAt,value
2023-05-25T00:00:50.057Z,10.30
2023-05-25T00:03:28.208Z,10.30
2023-05-25T00:06:02.544Z,10.30
2023-05-25T00:08:34.941Z,10.20
2023-05-25T00:11:07.038Z,10.20
2023-05-25T00:13:39.741Z,10.20
2023-05-25T00:16:11.819Z,10.10
2023-05-25T00:18:44.065Z,10.10
2023-05-25T00:21:16.621Z,10.10
2023-05-25T00:23:49.130Z,10.10
2023-05-25T00:26:21.689Z,10.10
2023-05-25T00:28:53.806Z,10.10
2023-05-25T00:31:26.363Z,10.00
2023-05-25T00:33:59.872Z,10.00
2023-05-25T00:36:32.125Z,10.10
2023-05-25T00:39:04.363Z,10.00
2023-05-25T00:41:41.570Z,10.00
2023-05-25T00:44:16.864Z,10.00
2023-05-25T00:46:53.303Z,10.00
2023-05-25T00:49:25.998Z,10.10
2023-05-25T00:51:58.999Z,10.10
2023-05-25T00:54:33.467Z,10.10
2023-05-25T00:57:09.993Z,10.10
2023-05-25T00:59:48.449Z,10.20
2023-05-25T01:02:24.538Z,10.20
2023-05-25T01:05:00.637Z,10.20
2023-05-25T01:07:38.265Z,10.20
2023-05-25T01:10:15.803Z,10.20
2023-05-25T01:12:55.259Z,10.20
2023-05-25T01:15:30.072Z,10.20
2023-05-25T01:18:04.565Z,10.10
2023-05-25T01:20:36.837Z,10.10
2023-05-25T01:23:14.507Z,10.10
2023-05-25T01:25:53.963Z,10.00
2023-05-25T01:28:35.808Z,9.90
2023-05-25T01:31:11.652Z,10.00
2023-05-25T01:33:47.248Z,9.90
2023-05-25T01:36:21.372Z,9.90
2023-05-25T01:38:53.918Z,9.80
2023-05-25T01:41:26.645Z,9.90
2023-05-25T01:43:58.792Z,9.80
2023-05-25T01:46:39.587Z,9.80
2023-05-25T01:49:27.011Z,9.80
2023-05-25T01:52:22.362Z,9.70
2023-05-25T01:55:08.496Z,9.70
2023-05-25T01:57:45.932Z,9.60
2023-05-25T02:00:21.462Z,9.60
2023-05-25T02:02:55.711Z,9.50
2023-05-25T02:05:28.522Z,9.50
2023-05-25T02:08:00.975Z,9.40
2023-05-25T02:10:32.992Z,9.40
2023-05-25T02:13:05.014Z,9.30
2023-05-25T02:15:37.138Z,9.20
2023-05-25T02:18:09.253Z,9.20
2023-05-25T02:20:41.921Z,9.10
2023-05-25T02:23:15.597Z,9.10
2023-05-25T02:25:51.680Z,9.00
2023-05-25T02:28:23.816Z,9.00
2023-05-25T02:30:55.947Z,9.00
2023-05-25T02:33:28.145Z,9.00
2023-05-25T02:36:00.214Z,8.90
2023-05-25T02:38:32.608Z,8.90
2023-05-25T02:41:04.717Z,8.90
2023-05-25T02:43:37.526Z,8.90
2023-05-25T02:46:10.092Z,8.90
2023-05-25T02:48:43.336Z,8.90
2023-05-25T02:51:15.513Z,8.90
2023-05-25T02:53:48.264Z,8.90
2023-05-25T02:56:21.691Z,8.90
2023-05-25T02:58:53.869Z,8.80
2023-05-25T03:01:26.140Z,8.80
2023-05-25T03:04:02.123Z,8.80
2023-05-25T03:06:36.523Z,8.90
2023-05-25T03:09:09.635Z,8.80
2023-05-25T03:11:41.968Z,8.70
2023-05-25T03:14:14.301Z,8.80
2023-05-25T03:16:46.622Z,8.70
2023-05-25T03:19:20.467Z,8.70
2023-05-25T03:21:52.741Z,8.70
2023-05-25T03:24:24.808Z,8.70
2023-05-25T03:26:57.744Z,8.70
2023-05-25T03:29:29.791Z,8.60
2023-05-25T03:32:01.916Z,8.60
2023-05-25T03:34:35.426Z,8.50
2023-05-25T03:37:08.060Z,8.50
2023-05-25T03:39:40.135Z,8.30
2023-05-25T03:42:12.166Z,8.40
2023-05-25T03:44:44.245Z,8.40
2023-05-25T03:47:16.317Z,8.30
2023-05-25T03:49:48.344Z,8.30
2023-05-25T03:52:20.372Z,8.20
2023-05-25T03:54:52.466Z,8.20
2023-05-25T03:57:24.554Z,8.20
2023-05-25T03:59:56.910Z,8.30
2023-05-25T04:02:28.976Z,8.30
2023-05-25T04:05:01.143Z,8.30
2023-05-25T04:07:33.290Z,8.30
2023-05-25T04:10:06.346Z,8.40
2023-05-25T04:12:38.692Z,8.30
2023-05-25T04:15:14.133Z,8.40
2023-05-25T04:17:46.281Z,8.40
2023-05-25T04:20:18.437Z,8.40
2023-05-25T04:22:50.539Z,8.40
2023-05-25T04:25:23.011Z,8.50
2023-05-25T04:27:56.801Z,8.50
2023-05-25T04:30:28.923Z,8.50
2023-05-25T04:33:03.056Z,8.60
2023-05-25T04:35:36.778Z,8.60
2023-05-25T04:38:08.937Z,8.60
2023-05-25T04:40:43.417Z,8.70
2023-05-25T04:43:18.245Z,8.70
2023-05-25T04:45:51.545Z,8.70
2023-05-25T04:48:24.767Z,8.80
2023-05-25T04:51:03.013Z,8.80
2023-05-25T04:53:35.443Z,8.90
2023-05-25T04:56:07.700Z,8.90
2023-05-25T04:58:39.779Z,9.00
2023-05-25T05:01:13.107Z,9.10
2023-05-25T05:03:45.356Z,9.10
2023-05-25T05:06:18.106Z,9.20
2023-05-25T05:08:50.401Z,9.30
2023-05-25T05:11:23.614Z,9.30
2023-05-25T05:13:56.511Z,9.40
2023-05-25T05:16:34.272Z,9.50
2023-05-25T05:19:06.404Z,9.60
2023-05-25T05:21:38.558Z,9.70
2023-05-25T05:24:10.625Z,9.70
2023-05-25T05:26:56.414Z,9.80
2023-05-25T05:29:30.082Z,9.80
2023-05-25T05:32:02.210Z,9.90
2023-05-25T05:34:35.203Z,9.90
2023-05-25T05:37:08.318Z,10.00
2023-05-25T05:39:40.677Z,10.10
2023-05-25T05:42:12.680Z,10.20
2023-05-25T05:44:44.778Z,10.40
2023-05-25T05:47:16.870Z,10.50
2023-05-25T05:49:49.026Z,10.50
2023-05-25T05:52:21.124Z,10.70
2023-05-25T05:54:53.664Z,10.80
2023-05-25T05:57:25.953Z,11.10
2023-05-25T05:59:59.515Z,11.30
2023-05-25T06:02:32.005Z,11.60
2023-05-25T06:05:04.944Z,11.90
2023-05-25T06:07:38.620Z,12.10
2023-05-25T06:10:10.955Z,12.40
2023-05-25T06:12:43.555Z,12.70
2023-05-25T06:15:16.125Z,13.10
2023-05-25T06:17:48.464Z,13.40
2023-05-25T06:20:20.773Z,14.00
2023-05-25T06:22:53.811Z,14.50
2023-05-25T06:25:26.228Z,14.90
2023-05-25T06:27:58.490Z,15.30
2023-05-25T06:30:30.770Z,15.70
2023-05-25T06:33:03.126Z,16.10
2023-05-25T06:35:35.650Z,16.60
2023-05-25T06:38:08.030Z,17.00
2023-05-25T06:40:40.365Z,17.50
2023-05-25T06:43:12.542Z,17.90
2023-05-25T06:45:45.006Z,18.20
2023-05-25T06:48:17.600Z,18.70
2023-05-25T06:50:49.739Z,19.10
2023-05-25T06:53:21.933Z,19.20
2023-05-25T06:55:54.033Z,19.20
2023-05-25T06:58:27.350Z,19.10
2023-05-25T07:01:01.106Z,18.50
2023-05-25T07:03:33.552Z,17.80
2023-05-25T07:06:06.779Z,17.10
2023-05-25T07:08:39.207Z,16.50
2023-05-25T07:11:12.644Z,15.90
2023-05-25T07:13:45.142Z,15.60
2023-05-25T07:16:17.409Z,15.30
2023-05-25T07:18:49.614Z,15.00
2023-05-25T07:21:21.795Z,14.80
2023-05-25T07:23:54.358Z,14.60
2023-05-25T07:26:28.032Z,14.50
2023-05-25T07:29:02.843Z,14.50
2023-05-25T07:31:35.149Z,14.50
2023-05-25T07:34:07.786Z,14.40
2023-05-25T07:36:40.066Z,14.40
2023-05-25T07:39:12.230Z,14.40
2023-05-25T07:41:44.694Z,14.40
2023-05-25T07:44:17.106Z,14.50
2023-05-25T07:46:49.429Z,14.50
2023-05-25T07:49:21.821Z,14.60
2023-05-25T07:51:54.377Z,14.60
2023-05-25T07:54:26.996Z,14.70
2023-05-25T07:56:59.153Z,14.80
2023-05-25T07:59:32.307Z,14.90
2023-05-25T08:02:04.801Z,15.00
2023-05-25T08:04:37.818Z,15.10
2023-05-25T08:07:10.462Z,15.20
2023-05-25T08:09:42.775Z,15.40
2023-05-25T08:12:34.194Z,15.60
2023-05-25T08:15:08.078Z,15.80
2023-05-25T08:17:41.904Z,16.30
2023-05-25T08:20:15.377Z,16.90
2023-05-25T08:22:47.942Z,17.50
2023-05-25T08:25:20.950Z,18.10
2023-05-25T08:27:53.217Z,18.40
2023-05-25T08:30:25.417Z,19.00
2023-05-25T08:32:57.671Z,19.50
2023-05-25T08:35:30.138Z,19.90
2023-05-25T08:38:03.132Z,20.40
2023-05-25T08:40:36.093Z,20.50
2023-05-25T08:43:12.249Z,20.30
2023-05-25T08:45:47.078Z,20.10
2023-05-25T08:48:39.405Z,19.70
2023-05-25T08:51:16.346Z,19.40
2023-05-25T08:53:50.008Z,19.20
2023-05-25T08:56:27.357Z,19.10
2023-05-25T08:59:46.082Z,19.10
2023-05-25T09:02:51.486Z,19.10
2023-05-25T09:05:41.037Z,19.30
2023-05-25T09:08:14.565Z,19.40
2023-05-25T09:10:49.201Z,19.40
2023-05-25T09:13:23.214Z,19.60
2023-05-25T09:15:56.095Z,19.60
2023-05-25T09:18:28.995Z,19.60
2023-05-25T09:21:02.353Z,19.70
2023-05-25T09:23:37.519Z,19.80
2023-05-25T09:26:10.409Z,19.90
2023-05-25T09:28:49.499Z,20.00
2023-05-25T09:31:24.825Z,20.00
2023-05-25T09:34:00.209Z,20.00
2023-05-25T09:36:35.968Z,20.00
2023-05-25T09:39:13.083Z,20.00
2023-05-25T09:41:45.892Z,20.10
2023-05-25T09:44:18.899Z,20.20
2023-05-25T09:46:51.529Z,20.40
2023-05-25T09:49:23.808Z,20.60
2023-05-25T09:51:57.122Z,20.60
2023-05-25T09:54:29.889Z,20.60
2023-05-25T09:57:05.291Z,20.70
2023-05-25T09:59:37.681Z,20.70
2023-05-25T10:02:10.211Z,20.70
2023-05-25T10:04:43.124Z,20.60
2023-05-25T10:07:16.307Z,20.60
2023-05-25T10:09:53.578Z,20.60
2023-05-25T10:12:27.670Z,20.50
2023-05-25T10:15:04.449Z,20.50
2023-05-25T10:17:45.831Z,20.50
2023-05-25T10:20:29.296Z,20.60
2023-05-25T10:23:10.840Z,20.70
2023-05-25T10:25:47.212Z,20.70
2023-05-25T10:28:31.088Z,20.90
2023-05-25T10:31:09.613Z,20.80
2023-05-25T10:33:47.449Z,20.80
2023-05-25T10:36:25.172Z,20.70
2023-05-25T10:38:58.734Z,20.70
2023-05-25T10:41:31.539Z,20.70
2023-05-25T10:44:04.357Z,20.70
2023-05-25T10:46:37.204Z,20.80
2023-05-25T10:49:10.810Z,20.90
2023-05-25T10:51:43.881Z,20.90
2023-05-25T10:54:33.956Z,21.00
2023-05-25T10:57:20.017Z,21.20
2023-05-25T11:00:00.013Z,21.50
2023-05-25T11:02:56.015Z,21.50
2023-05-25T11:05:31.489Z,21.60
2023-05-25T11:08:10.105Z,21.70
2023-05-25T11:10:49.545Z,21.80
2023-05-25T11:13:31.914Z,21.80
2023-05-25T11:16:30.963Z,21.80
2023-05-25T11:19:15.171Z,21.80
2023-05-25T11:21:47.419Z,22.00
2023-05-25T11:24:20.959Z,22.20
2023-05-25T11:26:59.177Z,22.30
2023-05-25T11:29:33.236Z,22.40
2023-05-25T11:32:14.361Z,22.50
2023-05-25T11:34:54.336Z,22.50
2023-05-25T11:37:33.676Z,22.50
2023-05-25T11:40:08.101Z,22.50
2023-05-25T11:42:42.687Z,22.60
2023-05-25T11:45:17.853Z,22.60
2023-05-25T11:47:53.245Z,22.70
2023-05-25T11:50:25.794Z,22.70
2023-05-25T11:52:59.341Z,22.70
2023-05-25T11:55:35.945Z,22.80
2023-05-25T11:58:12.110Z,22.80
2023-05-25T12:00:44.937Z,22.80
2023-05-25T12:03:32.233Z,22.80
2023-05-25T12:06:05.424Z,22.80
2023-05-25T12:08:38.347Z,22.70
2023-05-25T12:11:10.769Z,22.70
2023-05-25T12:13:44.715Z,22.70
2023-05-25T12:16:17.807Z,22.80
2023-05-25T12:18:51.375Z,22.80
2023-05-25T12:21:25.057Z,22.70
2023-05-25T12:23:57.997Z,22.60
2023-05-25T12:26:30.880Z,22.50
2023-05-25T12:29:05.741Z,22.50
2023-05-25T12:31:39.441Z,22.50
2023-05-25T12:34:16.082Z,22.50
2023-05-25T12:36:54.683Z,22.50
2023-05-25T12:39:30.816Z,22.60
2023-05-25T12:42:07.209Z,22.70
2023-05-25T12:44:46.674Z,22.90
2023-05-25T12:47:28.861Z,23.00
2023-05-25T12:50:16.562Z,23.20
2023-05-25T12:52:51.019Z,23.40
2023-05-25T12:55:34.446Z,23.50
2023-05-25T12:58:08.188Z,23.50
2023-05-25T13:00:57.409Z,23.40
2023-05-25T13:03:30.855Z,23.40
2023-05-25T13:06:03.700Z,23.30
2023-05-25T13:08:36.286Z,23.40
2023-05-25T13:11:10.294Z,23.50
2023-05-25T13:13:43.001Z,23.60
2023-05-25T13:16:15.882Z,23.70
2023-05-25T13:18:48.319Z,23.80
2023-05-25T13:21:20.506Z,23.80
2023-05-25T13:23:52.728Z,24.10
2023-05-25T13:26:25.738Z,24.30
2023-05-25T13:28:58.120Z,24.40
2023-05-25T13:31:30.649Z,24.40
2023-05-25T13:34:03.875Z,24.40
2023-05-25T13:36:36.439Z,24.50
2023-05-25T13:39:13.395Z,24.50
2023-05-25T13:41:46.400Z,24.50
2023-05-25T13:44:19.228Z,24.50
2023-05-25T13:46:51.544Z,24.60
2023-05-25T13:49:25.726Z,24.60
2023-05-25T13:51:59.804Z,24.50
2023-05-25T13:54:32.248Z,24.50
2023-05-25T13:57:05.071Z,24.40
2023-05-25T13:59:38.882Z,24.50
2023-05-25T14:02:11.163Z,24.50
2023-05-25T14:04:43.549Z,24.50
2023-05-25T14:07:15.762Z,24.30
2023-05-25T14:09:48.138Z,24.30
2023-05-25T14:12:20.561Z,24.30
2023-05-25T14:14:52.931Z,24.30
2023-05-25T14:17:25.472Z,24.30
2023-05-25T14:19:58.958Z,24.20
2023-05-25T14:22:32.163Z,24.20
2023-05-25T14:25:05.396Z,24.40
2023-05-25T14:27:38.446Z,24.50
2023-05-25T14:30:11.106Z,24.70
2023-05-25T14:32:43.674Z,25.00
2023-05-25T14:35:15.861Z,25.20
2023-05-25T14:37:48.303Z,25.40
2023-05-25T14:40:22.088Z,25.40
2023-05-25T14:42:55.914Z,25.60
2023-05-25T14:45:28.369Z,25.60
2023-05-25T14:48:15.383Z,25.60
2023-05-25T14:50:53.967Z,25.60
2023-05-25T14:53:26.711Z,25.50
2023-05-25T14:55:59.380Z,25.40
2023-05-25T14:58:33.031Z,25.40
2023-05-25T15:01:06.035Z,25.40
2023-05-25T15:03:38.494Z,25.60
2023-05-25T15:06:11.210Z,25.70
2023-05-25T15:08:43.358Z,25.90
2023-05-25T15:11:15.597Z,26.00
2023-05-25T15:13:49.150Z,25.90
2023-05-25T15:16:21.543Z,25.80
2023-05-25T15:18:54.603Z,25.60
2023-05-25T15:21:27.275Z,25.60
2023-05-25T15:23:59.450Z,25.60
2023-05-25T15:26:31.833Z,25.60
2023-05-25T15:29:04.310Z,25.60
2023-05-25T15:31:36.787Z,25.70
2023-05-25T15:34:11.228Z,25.70
2023-05-25T15:36:43.617Z,25.70
2023-05-25T15:39:16.490Z,25.80
2023-05-25T15:41:48.897Z,25.80
2023-05-25T15:44:22.158Z,25.80
2023-05-25T15:46:54.681Z,25.90
2023-05-25T15:49:27.621Z,25.80
2023-05-25T15:51:59.957Z,25.80
2023-05-25T15:54:32.216Z,25.60
2023-05-25T15:57:04.674Z,25.60
2023-05-25T15:59:37.322Z,25.50
2023-05-25T16:02:09.551Z,25.30
2023-05-25T16:04:41.814Z,25.30
2023-05-25T16:07:14.300Z,25.20
2023-05-25T16:09:46.884Z,25.10
2023-05-25T16:12:24.842Z,25.10
2023-05-25T16:14:57.498Z,25.00
2023-05-25T16:17:30.200Z,25.00
2023-05-25T16:20:02.639Z,24.90
2023-05-25T16:22:36.143Z,24.80
2023-05-25T16:25:09.038Z,24.70
2023-05-25T16:27:42.038Z,24.70
2023-05-25T16:30:15.767Z,24.70
2023-05-25T16:32:49.204Z,24.70
2023-05-25T16:35:21.744Z,24.70
2023-05-25T16:37:54.551Z,24.60
2023-05-25T16:40:27.455Z,24.60
2023-05-25T16:43:00.468Z,24.50
2023-05-25T16:45:33.239Z,24.40
2023-05-25T16:48:06.136Z,24.20
2023-05-25T16:50:39.303Z,24.10
2023-05-25T16:53:11.949Z,24.10
2023-05-25T16:55:44.870Z,23.90
2023-05-25T16:58:17.826Z,23.80
2023-05-25T17:00:50.938Z,23.80
2023-05-25T17:03:23.617Z,23.70
2023-05-25T17:05:56.042Z,23.60
2023-05-25T17:08:28.481Z,23.60
2023-05-25T17:11:03.901Z,23.50
2023-05-25T17:13:37.111Z,23.40
2023-05-25T17:16:09.734Z,23.30
2023-05-25T17:18:42.196Z,23.20
2023-05-25T17:21:14.713Z,23.00
2023-05-25T17:23:48.086Z,22.90
2023-05-25T17:26:20.852Z,22.70
2023-05-25T17:28:53.757Z,22.50
2023-05-25T17:31:30.981Z,22.40
2023-05-25T17:34:04.327Z,22.30
2023-05-25T17:36:37.521Z,22.20
2023-05-25T17:39:10.159Z,22.10
2023-05-25T17:41:42.948Z,22.10
2023-05-25T17:44:17.688Z,22.00
2023-05-25T17:46:50.171Z,21.90
2023-05-25T17:49:22.742Z,21.80
2023-05-25T17:51:55.498Z,21.60
2023-05-25T17:54:28.733Z,21.50
2023-05-25T17:57:02.816Z,21.50
2023-05-25T17:59:36.723Z,21.40
2023-05-25T18:02:10.119Z,21.40
2023-05-25T18:04:43.651Z,21.30
2023-05-25T18:07:16.301Z,21.20
2023-05-25T18:09:51.310Z,21.10
2023-05-25T18:12:24.299Z,21.00
2023-05-25T18:14:57.120Z,20.90
2023-05-25T18:17:30.063Z,20.90
2023-05-25T18:20:02.517Z,20.90
2023-05-25T18:22:36.646Z,20.80
2023-05-25T18:25:09.874Z,20.70
2023-05-25T18:27:42.303Z,20.70
2023-05-25T18:30:14.947Z,20.60
2023-05-25T18:32:47.626Z,20.60
2023-05-25T18:35:19.989Z,20.40
2023-05-25T18:37:52.550Z,20.40
2023-05-25T18:40:25.327Z,20.30
2023-05-25T18:42:58.091Z,20.20
2023-05-25T18:45:30.832Z,20.20
2023-05-25T18:48:09.084Z,20.10
2023-05-25T18:50:42.667Z,20.10
2023-05-25T18:53:15.356Z,20.00
2023-05-25T18:55:47.995Z,20.00
2023-05-25T18:58:21.321Z,19.90
2023-05-25T19:00:54.063Z,19.80
2023-05-25T19:03:27.193Z,19.80
2023-05-25T19:06:00.148Z,19.70
2023-05-25T19:08:32.763Z,19.60
2023-05-25T19:11:05.989Z,19.50
2023-05-25T19:13:39.068Z,19.50
2023-05-25T19:16:11.960Z,19.30
2023-05-25T19:18:45.586Z,19.30
2023-05-25T19:21:19.060Z,19.20
2023-05-25T19:23:52.303Z,19.10
2023-05-25T19:26:24.794Z,19.10
2023-05-25T19:28:57.938Z,19.10
2023-05-25T19:31:30.862Z,19.00
2023-05-25T19:34:03.673Z,18.90
2023-05-25T19:36:36.955Z,18.90
2023-05-25T19:39:10.127Z,18.80
2023-05-25T19:41:42.956Z,18.70
2023-05-25T19:44:16.744Z,18.70
2023-05-25T19:46:49.464Z,18.60
2023-05-25T19:49:22.284Z,18.60
2023-05-25T19:51:55.208Z,18.50
2023-05-25T19:54:28.384Z,18.50
2023-05-25T19:57:01.164Z,18.40
2023-05-25T19:59:34.358Z,18.40
2023-05-25T20:02:08.875Z,18.30
2023-05-25T20:04:42.289Z,18.30
2023-05-25T20:07:15.571Z,18.30
2023-05-25T20:09:50.415Z,18.20
2023-05-25T20:12:23.260Z,18.20
2023-05-25T20:14:55.808Z,18.10
2023-05-25T20:17:28.536Z,18.10
2023-05-25T20:20:02.207Z,18.10
2023-05-25T20:22:37.430Z,18.00
2023-05-25T20:25:09.964Z,17.90
2023-05-25T20:27:42.719Z,17.90
2023-05-25T20:30:17.180Z,17.80
2023-05-25T20:32:49.773Z,17.80
2023-05-25T20:35:23.087Z,17.70
2023-05-25T20:37:56.441Z,17.70
2023-05-25T20:40:29.648Z,17.70
2023-05-25T20:43:02.503Z,17.60
2023-05-25T20:45:35.272Z,17.60
2023-05-25T20:48:08.428Z,17.50
2023-05-25T20:50:41.343Z,17.50
2023-05-25T20:53:14.230Z,17.40
2023-05-25T20:55:48.593Z,17.30
2023-05-25T20:58:21.369Z,17.30
2023-05-25T21:00:53.745Z,17.20
2023-05-25T21:03:26.638Z,17.20
2023-05-25T21:05:59.273Z,17.10
2023-05-25T21:08:32.818Z,17.00
2023-05-25T21:11:05.817Z,16.90
2023-05-25T21:13:39.291Z,16.80
2023-05-25T21:16:12.028Z,16.70
2023-05-25T21:18:44.858Z,16.60
2023-05-25T21:21:17.567Z,16.60
2023-05-25T21:23:50.229Z,16.50
2023-05-25T21:26:23.497Z,16.40
2023-05-25T21:28:56.583Z,16.30
2023-05-25T21:31:29.855Z,16.20
2023-05-25T21:34:02.978Z,16.10
2023-05-25T21:36:36.648Z,16.00
2023-05-25T21:39:09.138Z,15.90
2023-05-25T21:41:42.096Z,15.80
2023-05-25T21:44:15.183Z,15.80
2023-05-25T21:46:47.910Z,15.70
2023-05-25T21:49:20.463Z,15.60
2023-05-25T21:51:52.928Z,15.60
2023-05-25T21:54:26.978Z,15.50
2023-05-25T21:56:59.345Z,15.40
2023-05-25T21:59:32.641Z,15.30
2023-05-25T22:02:04.973Z,15.30
2023-05-25T22:04:37.613Z,15.20
2023-05-25T22:07:10.173Z,15.20
2023-05-25T22:09:42.387Z,15.10
2023-05-25T22:12:14.605Z,15.10
2023-05-25T22:14:47.202Z,15.00
2023-05-25T22:17:19.612Z,14.90
2023-05-25T22:20:03.293Z,14.90
2023-05-25T22:22:40.141Z,14.80
2023-05-25T22:25:13.375Z,14.80
2023-05-25T22:27:45.769Z,14.70
2023-05-25T22:30:17.966Z,14.70
2023-05-25T22:32:50.181Z,14.70
2023-05-25T22:35:22.436Z,14.60
2023-05-25T22:37:54.924Z,14.60
2023-05-25T22:40:27.103Z,14.50
2023-05-25T22:42:59.212Z,14.50
2023-05-25T22:45:31.396Z,14.40
2023-05-25T22:48:03.752Z,14.40
2023-05-25T22:50:36.415Z,14.30
2023-05-25T22:53:08.454Z,14.30
2023-05-25T22:55:40.654Z,14.30
2023-05-25T22:58:12.928Z,14.20
2023-05-25T23:00:45.040Z,14.20
2023-05-25T23:03:17.253Z,14.20
2023-05-25T23:05:49.514Z,14.20
2023-05-25T23:08:22.040Z,14.20
2023-05-25T23:10:54.289Z,14.20
2023-05-25T23:13:27.841Z,14.20
2023-05-25T23:16:00.212Z,14.30
2023-05-25T23:18:32.359Z,14.30
2023-05-25T23:21:04.521Z,14.30
2023-05-25T23:23:36.686Z,14.40
2023-05-25T23:26:08.850Z,14.40
2023-05-25T23:28:41.056Z,14.40
2023-05-25T23:31:13.282Z,14.40
2023-05-25T23:33:45.562Z,14.40
2023-05-25T23:36:17.674Z,14.40
2023-05-25T23:38:49.771Z,14.40
2023-05-25T23:41:23.215Z,14.40
2023-05-25T23:43:57.729Z,14.40
2023-05-25T23:46:31.816Z,14.30
2023-05-25T23:49:04.067Z,14.30
2023-05-25T23:51:36.602Z,14.30
2023-05-25T23:54:10.007Z,14.30
2023-05-25T23:56:42.044Z,14.30
2023-05-25T23:59:15.171Z,14.30
